Time;durP1;ratioP1;P1;durP2;ratioP2;P2;SDS_P1;SDS_P2;PMS_P1;PMS_P2;Temp;Humidity;BMP_temperature;BMP_pressure;BME280_temperature;BME280_humidity;BME280_pressure;Samples;Min_cycle;Max_cycle;Signal;HPM_P1;HPM_P2
2024/01/23 00:01:09;;;;;;;17.00;12.20;;;;;;;4.29;76.14;100157.69;113162;239;38418;-69
2024/01/23 00:03:52;;;;;;;20.50;12.90;;;;;;;4.25;76.13;100161.02;113119;239;38813;-68
2024/01/23 00:06:26;;;;;;;17.00;11.50;;;;;;;4.23;76.45;100165.36;113143;239;38338;-69
2024/01/23 00:09:00;;;;;;;18.30;11.70;;;;;;;4.24;76.50;100167.25;113172;239;39883;-69
2024/01/23 00:11:33;;;;;;;19.10;12.20;;;;;;;4.26;76.72;100168.60;113101;239;38595;-69
2024/01/23 00:14:07;;;;;;;16.00;10.20;;;;;;;4.28;77.08;100170.30;113156;239;38731;-67
2024/01/23 00:16:41;;;;;;;16.20;10.50;;;;;;;4.29;77.19;100179.94;113144;239;38525;-67
2024/01/23 00:19:15;;;;;;;16.70;11.60;;;;;;;4.31;77.30;100177.67;113152;239;40481;-67
2024/01/23 00:21:49;;;;;;;15.80;11.30;;;;;;;4.29;77.38;100175.45;113165;239;38333;-67
2024/01/23 00:24:23;;;;;;;18.20;12.30;;;;;;;4.28;77.53;100171.84;113133;239;38908;-69
2024/01/23 00:26:57;;;;;;;15.50;10.40;;;;;;;4.26;77.71;100180.50;113125;239;38730;-69
2024/01/23 00:29:30;;;;;;;15.70;10.10;;;;;;;4.27;77.71;100177.21;113136;239;38896;-67
2024/01/23 00:32:05;;;;;;;18.70;12.00;;;;;;;4.31;77.63;100177.84;113125;239;38340;-67
2024/01/23 00:34:38;;;;;;;16.90;11.80;;;;;;;4.34;77.83;100177.97;113136;239;38691;-67
2024/01/23 00:37:12;;;;;;;17.50;10.70;;;;;;;4.36;77.79;100174.66;113123;239;38486;-67
2024/01/23 00:39:46;;;;;;;17.50;11.90;;;;;;;4.37;77.67;100172.39;113171;239;38331;-68
2024/01/23 00:42:20;;;;;;;17.80;11.90;;;;;;;4.35;77.61;100170.71;113145;239;38464;-69
2024/01/23 00:44:54;;;;;;;14.60;10.40;;;;;;;4.34;77.72;100170.04;113148;239;38523;-67
2024/01/23 00:47:28;;;;;;;25.70;12.10;;;;;;;4.32;77.74;100166.59;113147;239;39452;-67
2024/01/23 00:50:02;;;;;;;16.10;10.30;;;;;;;4.33;77.90;100166.41;113129;239;38521;-67
2024/01/23 00:52:35;;;;;;;15.60;11.90;;;;;;;4.33;77.87;100167.78;113154;239;38877;-67
2024/01/23 00:55:11;;;;;;;18.30;12.10;;;;;;;4.34;77.81;100166.41;113193;239;38551;-68
2024/01/23 00:57:45;;;;;;;18.90;12.20;;;;;;;4.32;77.87;100169.02;113147;239;38771;-69
2024/01/23 01:00:20;;;;;;;16.20;11.80;;;;;;;4.27;77.83;100172.90;113143;239;39899;-69
2024/01/23 01:02:54;;;;;;;16.70;11.60;;;;;;;4.23;77.92;100175.72;112425;239;910148;-69
2024/01/23 01:05:28;;;;;;;17.20;11.30;;;;;;;4.22;77.82;100185.23;113141;239;39631;-67
2024/01/23 01:08:01;;;;;;;13.90;10.30;;;;;;;4.21;77.94;100193.54;113107;239;38659;-67
2024/01/23 01:10:35;;;;;;;15.80;10.90;;;;;;;4.21;78.30;100196.98;113133;239;38916;-67
2024/01/23 01:13:10;;;;;;;17.90;12.00;;;;;;;4.22;78.13;100199.90;113118;239;38713;-67
2024/01/23 01:15:43;;;;;;;18.00;13.00;;;;;;;4.21;78.36;100198.04;113127;239;38336;-68
2024/01/23 01:18:17;;;;;;;17.70;12.60;;;;;;;4.19;78.29;100193.23;113055;239;174969;-69
2024/01/23 01:20:51;;;;;;;17.80;11.90;;;;;;;4.14;78.33;100192.42;113168;239;39531;-69
2024/01/23 01:23:25;;;;;;;17.30;11.20;;;;;;;4.14;78.37;100189.16;113159;239;40143;-69
2024/01/23 01:25:59;;;;;;;16.50;11.50;;;;;;;4.16;78.34;100195.34;113124;239;39761;-67
2024/01/23 01:28:33;;;;;;;18.00;11.40;;;;;;;4.16;78.42;100200.88;113145;239;38300;-67
2024/01/23 01:31:07;;;;;;;16.40;11.60;;;;;;;4.16;78.53;100204.84;113128;239;38258;-68
2024/01/23 01:33:41;;;;;;;16.20;12.10;;;;;;;4.16;78.65;100207.77;113133;239;38952;-68
2024/01/23 01:36:15;;;;;;;21.80;12.80;;;;;;;4.15;78.64;100210.38;113169;239;38331;-69
2024/01/23 01:38:49;;;;;;;16.40;11.90;;;;;;;4.15;78.75;100209.34;113125;239;40461;-69
2024/01/23 01:41:23;;;;;;;16.70;11.10;;;;;;;4.16;78.74;100208.13;113158;239;40003;-67
2024/01/23 01:43:57;;;;;;;17.30;11.50;;;;;;;4.15;78.62;100212.45;113164;239;38531;-67
2024/01/23 01:46:30;;;;;;;16.50;12.20;;;;;;;4.17;78.82;100214.31;113150;239;39658;-67
2024/01/23 01:49:05;;;;;;;16.80;12.10;;;;;;;4.20;78.90;100212.21;113139;239;40216;-69
2024/01/23 01:51:39;;;;;;;18.70;11.30;;;;;;;4.22;78.90;100212.52;113116;239;39496;-69
2024/01/23 01:54:13;;;;;;;17.10;12.30;;;;;;;4.21;78.82;100202.86;113128;239;39576;-68
2024/01/23 01:56:46;;;;;;;18.90;10.90;;;;;;;4.21;78.86;100199.25;113126;239;39068;-69
2024/01/23 01:59:20;;;;;;;19.90;12.30;;;;;;;4.22;78.69;100204.06;113151;239;38565;-68
2024/01/23 02:01:54;;;;;;;18.90;11.50;;;;;;;4.22;78.60;100201.11;113148;239;38556;-69
2024/01/23 02:04:28;;;;;;;19.00;11.90;;;;;;;4.21;78.74;100209.42;113143;239;39087;-68
2024/01/23 02:07:02;;;;;;;19.70;12.70;;;;;;;4.20;78.73;100210.83;113143;239;38501;-69
2024/01/23 02:09:36;;;;;;;20.90;12.90;;;;;;;4.19;78.81;100218.09;113140;239;40281;-67
2024/01/23 02:12:10;;;;;;;17.70;11.20;;;;;;;4.15;78.76;100220.73;113011;239;174983;-67
2024/01/23 02:14:44;;;;;;;17.80;11.00;;;;;;;4.11;78.78;100219.92;113160;239;39081;-67
2024/01/23 02:17:18;;;;;;;20.20;11.10;;;;;;;4.10;78.99;100220.11;113113;239;38684;-67
2024/01/23 02:19:51;;;;;;;18.40;11.60;;;;;;;4.10;79.06;100221.83;113146;239;38567;-68
2024/01/23 02:22:25;;;;;;;20.00;11.90;;;;;;;4.09;79.17;100230.66;113136;239;40064;-69
2024/01/23 02:24:59;;;;;;;20.90;13.30;;;;;;;4.10;79.23;100233.58;113135;239;40166;-68
2024/01/23 02:27:33;;;;;;;17.50;11.40;;;;;;;4.09;79.19;100235.15;113128;239;38571;-69
2024/01/23 02:30:09;;;;;;;16.60;10.20;;;;;;;4.06;79.46;100227.75;113173;239;38548;-67
2024/01/23 02:32:46;;;;;;;14.80;9.40;;;;;;;4.05;79.73;100231.06;113126;239;40358;-67
2024/01/23 02:35:19;;;;;;;14.20;9.70;;;;;;;4.03;79.59;100240.05;113137;239;40258;-68
2024/01/23 02:37:54;;;;;;;13.20;9.60;;;;;;;4.05;79.68;100237.45;113143;239;38356;-69
2024/01/23 02:40:28;;;;;;;15.70;10.00;;;;;;;4.06;79.81;100232.59;113123;239;38647;-68
2024/01/23 02:43:02;;;;;;;15.30;10.00;;;;;;;4.07;79.95;100230.50;113139;239;39715;-68
2024/01/23 02:45:36;;;;;;;20.60;12.10;;;;;;;4.07;79.88;100230.66;113014;240;38682;-67
2024/01/23 02:48:11;;;;;;;16.00;9.90;;;;;;;4.04;79.83;100231.06;113054;240;38330;-67
2024/01/23 02:50:44;;;;;;;12.40;9.30;;;;;;;4.04;79.84;100230.89;113025;240;38556;-68
2024/01/23 02:53:18;;;;;;;17.40;10.20;;;;;;;4.06;79.93;100233.64;113061;240;40081;-69
2024/01/23 02:55:52;;;;;;;17.50;10.60;;;;;;;4.09;79.95;100237.73;112336;241;910159;-68
2024/01/23 02:58:26;;;;;;;17.20;10.40;;;;;;;4.13;79.89;100241.99;112985;241;38467;-69
2024/01/23 03:01:00;;;;;;;15.70;9.80;;;;;;;4.16;79.95;100248.51;112991;240;38994;-67
2024/01/23 03:03:33;;;;;;;16.80;9.50;;;;;;;4.18;79.98;100259.52;113034;241;38368;-67
2024/01/23 03:06:07;;;;;;;18.50;10.50;;;;;;;4.18;79.92;100267.47;113007;240;38705;-67
2024/01/23 03:08:41;;;;;;;17.10;10.00;;;;;;;4.19;79.91;100262.63;113035;241;38366;-67
2024/01/23 03:11:15;;;;;;;13.70;9.80;;;;;;;4.22;79.75;100259.83;113065;241;38588;-68
2024/01/23 03:13:49;;;;;;;13.30;9.30;;;;;;;4.25;79.78;100262.02;113027;240;38882;-69
2024/01/23 03:16:23;;;;;;;19.30;11.10;;;;;;;4.28;79.76;100265.77;113017;240;38731;-67
2024/01/23 03:18:57;;;;;;;14.10;9.50;;;;;;;4.30;79.73;100262.66;113062;241;38515;-68
2024/01/23 03:21:31;;;;;;;15.60;9.50;;;;;;;4.31;79.55;100263.33;113043;241;40566;-68
2024/01/23 03:24:05;;;;;;;15.80;9.60;;;;;;;4.29;79.41;100257.48;113035;240;40515;-68
2024/01/23 03:26:39;;;;;;;12.40;8.70;;;;;;;4.26;79.32;100256.32;113000;240;38733;-69
2024/01/23 03:29:12;;;;;;;15.50;9.00;;;;;;;4.24;79.15;100255.14;113058;240;38691;-68
2024/01/23 03:31:46;;;;;;;14.30;8.50;;;;;;;4.21;79.23;100258.62;113036;240;38555;-68
2024/01/23 03:34:21;;;;;;;12.30;8.90;;;;;;;4.18;79.20;100258.33;113056;240;39469;-68
2024/01/23 03:36:55;;;;;;;12.90;9.00;;;;;;;4.13;79.28;100259.59;113039;240;38546;-68
2024/01/23 03:39:29;;;;;;;14.10;9.20;;;;;;;4.06;79.42;100259.86;113023;241;39917;-67
2024/01/23 03:42:03;;;;;;;13.40;9.30;;;;;;;4.00;79.39;100261.17;113018;241;39009;-67
2024/01/23 03:44:37;;;;;;;14.40;8.70;;;;;;;3.93;79.41;100259.17;113096;239;38735;-67
2024/01/23 03:47:10;;;;;;;14.30;8.80;;;;;;;3.89;79.39;100268.20;113155;239;38817;-67
2024/01/23 03:49:44;;;;;;;15.10;8.90;;;;;;;3.85;79.42;100268.42;113122;239;39467;-68
2024/01/23 03:52:18;;;;;;;13.90;9.60;;;;;;;3.82;79.60;100263.63;113131;239;38267;-69
2024/01/23 03:54:53;;;;;;;12.80;8.70;;;;;;;3.78;79.77;100259.54;113152;239;38781;-68
2024/01/23 03:57:28;;;;;;;13.30;8.80;;;;;;;3.74;79.92;100262.35;113125;239;38986;-68
2024/01/23 04:00:02;;;;;;;14.50;9.50;;;;;;;3.69;80.20;100267.41;113147;239;39764;-68
2024/01/23 04:02:37;;;;;;;16.10;9.20;;;;;;;3.66;80.40;100272.61;113164;239;38547;-69
2024/01/23 04:05:12;;;;;;;18.50;9.20;;;;;;;3.64;80.38;100272.11;113154;239;39976;-67
2024/01/23 04:07:47;;;;;;;16.20;9.00;;;;;;;3.62;80.67;100273.00;113148;239;39130;-67
2024/01/23 04:10:21;;;;;;;14.60;8.90;;;;;;;3.61;80.66;100268.88;113172;239;39611;-67
2024/01/23 04:12:55;;;;;;;15.70;8.80;;;;;;;3.60;80.73;100278.38;113141;240;39138;-67
2024/01/23 04:15:29;;;;;;;11.90;8.80;;;;;;;3.56;80.49;100278.59;113165;239;40099;-68
2024/01/23 04:18:03;;;;;;;14.60;8.80;;;;;;;3.50;80.54;100277.96;113129;240;38775;-69
2024/01/23 04:20:38;;;;;;;14.30;9.20;;;;;;;3.44;80.65;100277.52;113130;239;38568;-68
2024/01/23 04:23:11;;;;;;;13.80;9.40;;;;;;;3.41;80.82;100283.23;113098;240;40291;-68
2024/01/23 04:25:46;;;;;;;14.60;8.80;;;;;;;3.40;80.96;100287.73;113104;240;39784;-67
2024/01/23 04:28:20;;;;;;;17.70;9.00;;;;;;;3.40;81.05;100291.01;113110;239;39761;-67
2024/01/23 04:30:54;;;;;;;15.80;9.50;;;;;;;3.40;81.15;100293.42;113104;240;39635;-67
2024/01/23 04:33:29;;;;;;;11.20;8.00;;;;;;;3.40;81.31;100295.31;113113;239;39992;-67
2024/01/23 04:36:03;;;;;;;15.60;8.60;;;;;;;3.37;81.27;100302.41;113134;240;39638;-68
2024/01/23 04:38:37;;;;;;;14.10;8.30;;;;;;;3.32;81.19;100306.41;113115;239;39492;-68
2024/01/23 04:41:11;;;;;;;14.30;9.00;;;;;;;3.29;81.33;100302.30;113128;239;39030;-68
2024/01/23 04:43:45;;;;;;;12.50;7.90;;;;;;;3.26;81.50;100306.49;113116;239;39850;-68
2024/01/23 04:46:19;;;;;;;11.90;8.30;;;;;;;3.26;81.58;100302.00;113139;239;37965;-67
2024/01/23 04:48:52;;;;;;;14.70;8.20;;;;;;;3.25;81.93;100304.93;113139;239;38590;-67
2024/01/23 04:51:26;;;;;;;14.30;8.70;;;;;;;3.25;82.07;100309.77;113142;239;38430;-68
2024/01/23 04:54:00;;;;;;;15.00;8.50;;;;;;;3.22;82.07;100312.39;113140;239;38519;-68
2024/01/23 04:56:34;;;;;;;15.10;8.40;;;;;;;3.18;82.07;100310.86;113119;239;38375;-68
2024/01/23 04:59:08;;;;;;;16.00;8.30;;;;;;;3.17;82.09;100312.77;113151;239;38371;-68
2024/01/23 05:01:41;;;;;;;14.40;7.70;;;;;;;3.18;82.24;100313.11;113143;239;39921;-68
2024/01/23 05:04:15;;;;;;;12.00;8.20;;;;;;;3.20;82.56;100315.67;113142;239;38578;-67
2024/01/23 05:06:49;;;;;;;14.10;8.60;;;;;;;3.24;82.89;100322.88;112622;239;355347;-67
2024/01/23 05:09:23;;;;;;;14.00;8.20;;;;;;;3.26;82.71;100323.04;113109;239;38891;-68
2024/01/23 05:11:57;;;;;;;16.60;8.40;;;;;;;3.27;82.88;100325.61;113157;239;38264;-69
2024/01/23 05:14:30;;;;;;;13.40;8.60;;;;;;;3.26;82.84;100327.69;113125;239;38520;-67
2024/01/23 05:17:04;;;;;;;15.80;9.00;;;;;;;3.23;82.91;100329.95;113105;239;38334;-66
2024/01/23 05:19:38;;;;;;;13.70;8.00;;;;;;;3.20;83.14;100326.19;113151;239;39002;-67
2024/01/23 05:22:12;;;;;;;15.30;9.20;;;;;;;3.20;83.06;100325.34;113139;239;38931;-67
2024/01/23 05:24:45;;;;;;;14.60;8.00;;;;;;;3.21;83.04;100326.19;113150;239;38652;-69
2024/01/23 05:27:21;;;;;;;12.40;8.00;;;;;;;3.20;83.10;100326.54;113151;239;38709;-69
2024/01/23 05:29:55;;;;;;;15.30;9.80;;;;;;;3.19;83.19;100327.73;113155;239;38392;-67
2024/01/23 05:32:29;;;;;;;15.90;9.10;;;;;;;3.16;83.23;100336.20;112860;239;38445;-67
2024/01/23 05:35:04;;;;;;;18.70;9.20;;;;;;;3.14;83.20;100339.67;113121;239;38394;-68
2024/01/23 05:37:37;;;;;;;19.20;8.90;;;;;;;3.12;83.20;100338.50;113108;239;40137;-68
2024/01/23 05:40:14;;;;;;;12.60;8.20;;;;;;;3.11;83.18;100339.36;113139;239;38554;-68
2024/01/23 05:42:48;;;;;;;16.00;9.40;;;;;;;3.10;83.15;100342.98;113121;239;38459;-69
2024/01/23 05:45:22;;;;;;;14.60;8.70;;;;;;;3.12;83.34;100349.02;113151;239;39681;-67
2024/01/23 05:47:56;;;;;;;15.80;9.70;;;;;;;3.13;83.21;100347.97;113126;239;39988;-67
2024/01/23 05:50:30;;;;;;;13.40;9.20;;;;;;;3.11;83.25;100350.73;113131;239;38809;-68
2024/01/23 05:53:04;;;;;;;16.40;9.80;;;;;;;3.06;83.45;100353.19;113151;239;38513;-68
2024/01/23 05:55:38;;;;;;;17.20;10.70;;;;;;;3.02;83.56;100357.00;113130;239;38022;-67
2024/01/23 05:58:11;;;;;;;17.30;9.10;;;;;;;2.98;83.50;100359.97;113123;239;39730;-67
2024/01/23 06:00:45;;;;;;;17.20;9.40;;;;;;;2.97;83.59;100365.16;113105;239;39541;-67
2024/01/23 06:03:19;;;;;;;19.90;10.40;;;;;;;2.96;83.80;100366.02;113168;239;38375;-67
2024/01/23 06:05:53;;;;;;;16.20;9.90;;;;;;;2.97;84.17;100371.87;113171;239;38556;-67
2024/01/23 06:08:27;;;;;;;17.60;10.90;;;;;;;2.95;83.94;100379.46;113133;239;38681;-67
2024/01/23 06:11:00;;;;;;;18.30;11.00;;;;;;;2.93;83.94;100378.45;113182;239;39289;-68
2024/01/23 06:13:34;;;;;;;16.90;10.70;;;;;;;2.88;83.96;100380.55;113148;239;38841;-69
2024/01/23 06:16:09;;;;;;;18.70;10.70;;;;;;;2.81;84.03;100380.24;113134;240;38875;-68
2024/01/23 06:18:44;;;;;;;16.10;9.40;;;;;;;2.79;84.29;100378.17;113111;240;39752;-68
2024/01/23 06:21:18;;;;;;;15.30;9.50;;;;;;;2.78;84.48;100379.92;113102;240;39169;-68
2024/01/23 06:23:52;;;;;;;14.40;9.70;;;;;;;2.80;84.74;100379.21;113125;240;38094;-67
2024/01/23 06:26:26;;;;;;;16.80;9.90;;;;;;;2.80;84.58;100371.63;113125;240;38351;-67
2024/01/23 06:29:01;;;;;;;16.20;10.20;;;;;;;2.82;84.63;100375.42;113120;240;40210;-67
2024/01/23 06:31:35;;;;;;;16.10;10.70;;;;;;;2.83;84.69;100375.40;113098;239;40338;-67
2024/01/23 06:34:09;;;;;;;17.00;12.60;;;;;;;2.82;84.65;100383.52;113117;239;39475;-68
2024/01/23 06:36:46;;;;;;;24.70;11.10;;;;;;;2.77;84.58;100386.30;113134;239;38384;-68
2024/01/23 06:39:20;;;;;;;17.80;11.00;;;;;;;2.76;84.79;100390.62;113130;240;38954;-68
2024/01/23 06:41:54;;;;;;;18.00;11.00;;;;;;;2.78;84.80;100395.60;113126;239;38510;-68
2024/01/23 06:44:27;;;;;;;20.10;11.40;;;;;;;2.81;85.09;100402.64;113122;240;38328;-69
2024/01/23 06:47:02;;;;;;;18.60;12.10;;;;;;;2.87;85.20;100408.12;113108;239;38367;-69
2024/01/23 06:49:35;;;;;;;19.80;11.90;;;;;;;2.93;85.20;100417.21;113135;239;39908;-68
2024/01/23 06:52:09;;;;;;;22.90;12.70;;;;;;;2.94;85.03;100422.71;113131;240;39000;-68
2024/01/23 06:54:43;;;;;;;22.10;13.10;;;;;;;2.92;85.07;100428.94;113143;239;39931;-67
2024/01/23 06:57:17;;;;;;;20.00;10.90;;;;;;;2.90;84.90;100429.80;113136;239;38607;-67
2024/01/23 06:59:51;;;;;;;17.80;10.80;;;;;;;2.87;84.94;100431.73;113152;239;38940;-67
2024/01/23 07:02:25;;;;;;;17.60;10.50;;;;;;;2.87;85.13;100431.73;113120;239;38989;-67
2024/01/23 07:04:58;;;;;;;13.90;10.30;;;;;;;2.90;85.19;100433.08;113163;240;39890;-69
2024/01/23 07:07:32;;;;;;;17.50;10.60;;;;;;;2.94;85.27;100439.08;113126;239;38552;-69
2024/01/23 07:10:06;;;;;;;15.00;11.10;;;;;;;2.98;85.44;100439.92;113148;239;39131;-68
2024/01/23 07:12:40;;;;;;;19.90;12.20;;;;;;;3.03;85.57;100442.98;113132;239;38531;-69
2024/01/23 07:15:14;;;;;;;18.50;11.90;;;;;;;3.07;85.58;100444.18;113170;239;38795;-68
2024/01/23 07:17:48;;;;;;;18.40;11.50;;;;;;;3.14;85.68;100451.20;113100;239;38748;-69
2024/01/23 07:20:21;;;;;;;15.40;10.50;;;;;;;3.20;85.65;100456.85;113154;239;39293;-68
2024/01/23 07:22:55;;;;;;;16.50;9.80;;;;;;;3.33;85.89;100453.84;113102;239;40003;-68
2024/01/23 07:25:29;;;;;;;19.90;10.70;;;;;;;3.46;85.79;100457.35;113118;239;38337;-67
2024/01/23 07:28:04;;;;;;;17.00;11.30;;;;;;;3.57;85.80;100464.52;113121;239;39696;-67
2024/01/23 07:30:38;;;;;;;17.00;10.60;;;;;;;3.81;86.36;100474.50;113142;239;38502;-67
2024/01/23 07:33:12;;;;;;;17.30;11.80;;;;;;;4.26;86.92;100474.23;113124;239;38566;-67
2024/01/23 07:35:46;;;;;;;15.50;10.60;;;;;;;4.78;87.18;100472.59;113143;239;40457;-68
2024/01/23 07:38:20;;;;;;;21.00;11.50;;;;;;;5.27;86.70;100478.83;113124;239;40772;-68
2024/01/23 07:40:53;;;;;;;14.30;9.80;;;;;;;5.75;85.91;100477.92;113134;239;39603;-69
2024/01/23 07:43:29;;;;;;;13.10;9.60;;;;;;;6.04;84.29;100482.84;113113;239;40231;-69
2024/01/23 07:46:03;;;;;;;15.10;10.30;;;;;;;6.04;81.68;100483.70;113132;239;38166;-68
2024/01/23 07:48:36;;;;;;;15.80;10.70;;;;;;;5.86;80.42;100482.23;113118;239;39123;-68
2024/01/23 07:51:10;;;;;;;14.70;10.20;;;;;;;5.72;79.65;100486.28;113147;239;38719;-68
2024/01/23 07:53:45;;;;;;;14.20;9.60;;;;;;;5.57;79.45;100493.10;113139;239;38714;-68
2024/01/23 07:56:20;;;;;;;16.20;9.60;;;;;;;5.44;79.42;100491.92;113156;239;38291;-69
2024/01/23 07:58:54;;;;;;;13.70;9.00;;;;;;;5.34;79.51;100499.14;113092;239;38572;-68
2024/01/23 08:01:27;;;;;;;17.50;9.50;;;;;;;5.25;79.53;100499.81;113115;239;39189;-69
2024/01/23 08:04:02;;;;;;;17.60;9.60;;;;;;;5.15;79.38;100501.48;113127;239;39595;-67
2024/01/23 08:06:36;;;;;;;12.50;8.80;;;;;;;5.09;79.53;100502.79;113121;239;38704;-67
2024/01/23 08:09:10;;;;;;;14.80;9.30;;;;;;;5.04;79.66;100504.59;113146;239;40073;-67
2024/01/23 08:11:44;;;;;;;17.70;9.00;;;;;;;5.03;79.82;100502.02;113128;239;38677;-67
2024/01/23 08:14:18;;;;;;;19.00;10.70;;;;;;;4.99;79.73;100501.36;113167;239;38714;-67
2024/01/23 08:16:52;;;;;;;14.70;9.70;;;;;;;4.94;79.83;100504.36;113116;239;40026;-67
2024/01/23 08:19:26;;;;;;;16.10;9.10;;;;;;;4.89;79.86;100509.97;113128;240;38437;-68
2024/01/23 08:22:00;;;;;;;16.20;8.50;;;;;;;4.87;80.00;100512.91;113151;240;39595;-69
2024/01/23 08:24:33;;;;;;;16.40;9.20;;;;;;;4.89;80.13;100515.67;113164;239;38673;-67
2024/01/23 08:27:08;;;;;;;16.40;9.20;;;;;;;4.93;80.19;100518.55;113112;240;38750;-67
2024/01/23 08:29:41;;;;;;;16.60;9.50;;;;;;;4.98;80.24;100524.20;113137;240;38396;-67
2024/01/23 08:32:15;;;;;;;15.60;9.40;;;;;;;4.99;80.15;100524.89;113120;240;38277;-67
2024/01/23 08:34:49;;;;;;;13.80;9.20;;;;;;;5.00;80.13;100528.86;113149;239;38428;-68
2024/01/23 08:37:23;;;;;;;16.00;9.30;;;;;;;5.02;80.13;100527.09;113110;240;39744;-69
2024/01/23 08:39:57;;;;;;;17.30;9.70;;;;;;;5.02;80.02;100531.76;113139;239;39810;-68
2024/01/23 08:42:31;;;;;;;12.60;8.30;;;;;;;5.04;79.95;100530.02;113128;239;38440;-68
2024/01/23 08:45:05;;;;;;;15.40;9.40;;;;;;;5.08;79.89;100533.92;113130;239;38860;-68
2024/01/23 08:47:39;;;;;;;13.90;8.50;;;;;;;5.16;79.97;100542.81;113116;239;38999;-68
2024/01/23 08:50:15;;;;;;;17.30;9.10;;;;;;;5.23;79.90;100544.64;113111;239;38982;-68
2024/01/23 08:52:49;;;;;;;14.00;9.10;;;;;;;5.28;79.89;100546.46;113111;240;39445;-69
2024/01/23 08:55:23;;;;;;;17.90;9.60;;;;;;;5.35;79.75;100547.74;113140;239;39899;-68
2024/01/23 08:57:57;;;;;;;17.00;9.60;;;;;;;5.45;80.04;100552.09;113140;239;39365;-69
2024/01/23 09:00:30;;;;;;;14.60;8.50;;;;;;;5.57;79.84;100547.95;113132;239;38974;-69
2024/01/23 09:03:05;;;;;;;15.10;8.90;;;;;;;5.67;79.45;100557.30;113148;239;38523;-69
2024/01/23 09:05:39;;;;;;;14.50;8.10;;;;;;;5.84;79.58;100556.20;113142;239;38867;-68
2024/01/23 09:08:13;;;;;;;13.00;8.70;;;;;;;6.08;79.69;100556.20;113025;239;174904;-68
2024/01/23 09:10:49;;;;;;;13.60;8.40;;;;;;;6.29;79.05;100554.98;113149;239;38555;-67
2024/01/23 09:13:24;;;;;;;16.10;8.40;;;;;;;6.42;78.39;100558.90;113105;239;39857;-67
2024/01/23 09:15:57;;;;;;;14.50;8.70;;;;;;;6.47;77.58;100566.61;113140;239;38529;-68
2024/01/23 09:18:31;;;;;;;14.10;9.20;;;;;;;6.51;77.00;100563.59;113152;240;39970;-68
2024/01/23 09:21:05;;;;;;;15.60;9.20;;;;;;;6.49;76.56;100570.90;113174;240;38418;-67
2024/01/23 09:23:41;;;;;;;14.60;8.50;;;;;;;6.48;76.75;100570.05;113140;239;38768;-67
2024/01/23 09:26:16;;;;;;;15.70;9.50;;;;;;;6.47;76.37;100571.98;113139;239;39783;-68
2024/01/23 09:28:50;;;;;;;13.60;8.40;;;;;;;6.45;76.17;100576.34;113153;240;38501;-68
2024/01/23 09:31:24;;;;;;;13.90;8.10;;;;;;;6.44;76.05;100578.61;113132;240;38424;-68
2024/01/23 09:33:58;;;;;;;17.20;8.40;;;;;;;6.40;75.80;100579.20;113120;239;38848;-69
2024/01/23 09:36:32;;;;;;;13.50;7.90;;;;;;;6.39;75.72;100583.90;113111;239;38332;-70
2024/01/23 09:39:06;;;;;;;13.10;8.00;;;;;;;6.35;75.31;100588.31;113143;239;38584;-67
2024/01/23 09:41:40;;;;;;;12.50;7.80;;;;;;;6.30;75.09;100584.59;113140;239;38324;-67
2024/01/23 09:44:13;;;;;;;14.70;8.10;;;;;;;6.23;75.05;100584.34;113151;239;39454;-67
2024/01/23 09:46:50;;;;;;;13.90;8.60;;;;;;;6.17;75.24;100587.04;113149;239;39639;-67
2024/01/23 09:49:23;;;;;;;13.20;8.60;;;;;;;6.12;75.30;100595.44;113120;239;38479;-67
2024/01/23 09:51:57;;;;;;;15.00;9.30;;;;;;;6.05;75.30;100596.08;113017;239;172215;-67
2024/01/23 09:54:32;;;;;;;15.00;8.90;;;;;;;6.00;75.37;100592.86;113140;239;39617;-67
2024/01/23 09:57:06;;;;;;;12.90;8.80;;;;;;;5.95;75.48;100593.65;113143;239;39457;-67
2024/01/23 09:59:40;;;;;;;13.00;8.10;;;;;;;5.92;75.71;100595.93;112941;239;39663;-67
2024/01/23 10:02:14;;;;;;;12.40;8.00;;;;;;;5.92;75.60;100595.59;113144;239;38568;-67
2024/01/23 10:04:48;;;;;;;13.60;8.80;;;;;;;5.92;75.62;100595.58;113126;239;38939;-67
2024/01/23 10:07:21;;;;;;;12.30;8.40;;;;;;;5.97;75.78;100594.31;113139;239;39627;-67
2024/01/23 10:09:59;;;;;;;15.60;8.70;;;;;;;6.04;76.03;100599.89;113145;239;39745;-68
2024/01/23 10:12:33;;;;;;;15.20;8.80;;;;;;;6.12;76.00;100596.14;113145;239;40021;-69
2024/01/23 10:15:08;;;;;;;14.40;8.20;;;;;;;6.15;75.84;100596.25;113135;239;40189;-69
2024/01/23 10:17:42;;;;;;;15.00;8.50;;;;;;;6.18;75.97;100598.45;113163;239;40140;-69
2024/01/23 10:20:16;;;;;;;14.00;8.70;;;;;;;6.25;75.96;100600.61;113112;239;38369;-67
2024/01/23 10:22:50;;;;;;;16.00;8.70;;;;;;;6.28;75.85;100596.73;113124;239;38801;-67
2024/01/23 10:25:25;;;;;;;15.70;8.20;;;;;;;6.27;75.70;100598.66;113137;239;38468;-69
2024/01/23 10:27:58;;;;;;;14.30;7.80;;;;;;;6.29;75.65;100602.27;113150;239;38806;-69
2024/01/23 10:30:32;;;;;;;14.20;8.30;;;;;;;6.35;75.57;100601.30;113120;239;38349;-67
2024/01/23 10:33:07;;;;;;;13.90;8.20;;;;;;;6.40;75.53;100602.95;113097;239;40159;-67
2024/01/23 10:35:41;;;;;;;13.70;7.80;;;;;;;6.45;75.42;100600.42;113142;239;38924;-67
2024/01/23 10:38:16;;;;;;;13.80;7.30;;;;;;;6.48;75.26;100600.89;113165;239;38711;-67
2024/01/23 10:40:51;;;;;;;13.50;7.90;;;;;;;6.47;75.04;100602.48;113111;239;38708;-69
2024/01/23 10:43:25;;;;;;;15.10;7.80;;;;;;;6.41;74.99;100602.40;113159;239;40036;-70
2024/01/23 10:45:59;;;;;;;15.70;8.30;;;;;;;6.34;75.12;100599.94;113161;239;38564;-68
2024/01/23 10:48:32;;;;;;;14.50;7.90;;;;;;;6.25;75.25;100594.54;113136;239;39561;-68
2024/01/23 10:51:19;;;;;;;12.30;6.40;;;;;;;6.18;75.49;100587.55;113148;239;40003;-68
2024/01/23 10:53:57;;;;;;;11.30;6.80;;;;;;;6.15;75.79;100593.14;113161;239;38490;-68
2024/01/23 10:56:34;;;;;;;11.50;7.10;;;;;;;6.13;75.98;100598.02;113170;239;39914;-69
2024/01/23 10:59:09;;;;;;;18.50;8.20;;;;;;;6.10;76.13;100602.39;113165;239;38727;-67
2024/01/23 11:01:44;;;;;;;15.90;7.90;;;;;;;6.10;76.36;100598.94;113123;240;38613;-67
2024/01/23 11:04:17;;;;;;;14.10;7.50;;;;;;;6.06;76.32;100602.47;113136;239;38908;-69
2024/01/23 11:06:56;;;;;;;13.00;7.50;;;;;;;6.01;76.48;100599.44;113141;240;38884;-69
2024/01/23 11:09:33;;;;;;;13.10;6.70;;;;;;;5.98;76.67;100601.73;113116;239;39632;-69
2024/01/23 11:12:12;;;;;;;10.80;6.30;;;;;;;5.97;76.64;100608.50;113128;239;38713;-70
2024/01/23 11:14:50;;;;;;;10.40;6.00;;;;;;;5.99;76.59;100608.63;113122;239;40223;-69
2024/01/23 11:17:24;;;;;;;13.00;7.00;;;;;;;5.99;76.49;100610.54;113125;240;38915;-69
2024/01/23 11:20:09;;;;;;;15.40;7.50;;;;;;;5.98;76.40;100612.63;113127;240;39715;-69
2024/01/23 11:22:44;;;;;;;14.30;7.70;;;;;;;5.98;76.38;100610.91;113147;239;38545;-69
2024/01/23 11:25:19;;;;;;;15.70;6.80;;;;;;;5.94;76.24;100614.26;113141;240;38845;-68
2024/01/23 11:27:53;;;;;;;12.60;6.70;;;;;;;5.85;76.09;100615.03;113099;240;38449;-69
2024/01/23 11:30:27;;;;;;;14.30;7.90;;;;;;;5.80;76.34;100613.75;113148;239;38835;-69
2024/01/23 11:33:25;;;;;;;13.40;6.70;;;;;;;5.75;76.54;100613.80;113112;239;38841;-69
2024/01/23 11:36:12;;;;;;;14.30;6.90;;;;;;;5.79;76.71;100613.41;113146;240;38398;-67
2024/01/23 11:38:48;;;;;;;17.30;7.60;;;;;;;5.83;76.76;100619.74;113131;239;38349;-67
2024/01/23 11:41:27;;;;;;;14.00;6.00;;;;;;;5.88;76.65;100615.18;113111;240;38844;-69
2024/01/23 11:44:15;;;;;;;14.10;6.00;;;;;;;5.91;76.59;100611.31;113137;239;39018;-69
2024/01/23 11:46:51;;;;;;;13.50;5.50;;;;;;;5.93;76.59;100608.73;113125;239;39857;-69
2024/01/23 11:49:25;;;;;;;12.80;6.00;;;;;;;5.92;76.53;100611.16;113119;240;39204;-69
2024/01/23 11:51:59;;;;;;;13.60;5.90;;;;;;;5.94;76.66;100612.52;113128;240;40303;-69
2024/01/23 11:54:34;;;;;;;15.30;5.90;;;;;;;5.96;76.57;100611.11;113131;240;39465;-67